createdAt,value
2019-05-25T00:01:26.034Z,12.47
2019-05-25T00:03:29.277Z,12.39
2019-05-25T00:05:31.699Z,12.48
2019-05-25T00:07:33.397Z,12.40
2019-05-25T00:09:35.508Z,12.52
2019-05-25T00:11:37.780Z,12.63
2019-05-25T00:13:39.924Z,12.63
2019-05-25T00:15:42.207Z,12.65
2019-05-25T00:17:44.387Z,12.75
2019-05-25T00:19:47.558Z,12.77
2019-05-25T00:21:49.949Z,12.66
2019-05-25T00:23:52.208Z,12.71
2019-05-25T00:25:54.369Z,12.70
2019-05-25T00:27:57.193Z,12.77
2019-05-25T00:30:00.501Z,12.87
2019-05-25T00:32:02.966Z,12.95
2019-05-25T00:34:05.601Z,12.93
2019-05-25T00:36:07.746Z,12.85
2019-05-25T00:38:09.808Z,12.86
2019-05-25T00:40:12.131Z,12.73
2019-05-25T00:42:14.705Z,12.70
2019-05-25T00:44:16.421Z,12.71
2019-05-25T00:46:18.438Z,12.77
2019-05-25T00:48:20.877Z,12.77
2019-05-25T00:50:22.965Z,12.83
2019-05-25T00:52:26.025Z,12.78
2019-05-25T00:54:29.608Z,12.77
2019-05-25T00:56:31.706Z,12.82
2019-05-25T00:58:33.884Z,12.63
2019-05-25T01:00:36.303Z,12.69
2019-05-25T01:02:39.946Z,12.66
2019-05-25T01:04:44.608Z,12.63
2019-05-25T01:06:47.418Z,12.67
2019-05-25T01:08:49.497Z,12.61
2019-05-25T01:10:51.917Z,12.67
2019-05-25T01:12:54.207Z,12.57
2019-05-25T01:14:56.291Z,12.65
2019-05-25T01:16:58.349Z,12.72
2019-05-25T01:19:00.944Z,12.71
2019-05-25T01:21:03.074Z,12.76
2019-05-25T01:23:05.236Z,12.66
2019-05-25T01:25:08.319Z,12.70
2019-05-25T01:27:12.154Z,12.75
2019-05-25T01:29:14.224Z,12.74
2019-05-25T01:31:18.416Z,12.63
2019-05-25T01:33:20.853Z,12.58
2019-05-25T01:35:23.045Z,12.57
2019-05-25T01:37:25.398Z,12.56
2019-05-25T01:39:27.497Z,12.65
2019-05-25T01:41:30.110Z,12.64
2019-05-25T01:43:32.394Z,12.63
2019-05-25T01:45:34.660Z,12.63
2019-05-25T01:47:36.766Z,12.65
2019-05-25T01:49:39.205Z,12.63
2019-05-25T01:51:41.004Z,12.64
2019-05-25T01:53:43.094Z,12.67
2019-05-25T01:55:45.699Z,12.62
2019-05-25T01:57:47.563Z,12.63
2019-05-25T01:59:49.962Z,12.63
2019-05-25T02:01:52.298Z,12.56
2019-05-25T02:03:54.601Z,12.56
2019-05-25T02:05:56.732Z,12.47
2019-05-25T02:07:59.195Z,12.40
2019-05-25T02:10:00.955Z,12.46
2019-05-25T02:12:03.052Z,12.50
2019-05-25T02:14:05.592Z,12.32
2019-05-25T02:16:08.085Z,12.26
2019-05-25T02:18:09.796Z,12.27
2019-05-25T02:20:12.387Z,12.25
2019-05-25T02:22:14.838Z,12.22
2019-05-25T02:24:16.545Z,12.12
2019-05-25T02:26:18.780Z,12.05
2019-05-25T02:28:20.873Z,12.02
2019-05-25T02:30:25.684Z,11.99
2019-05-25T02:32:28.254Z,12.00
2019-05-25T02:34:30.407Z,11.93
2019-05-25T02:36:32.535Z,12.00
2019-05-25T02:38:35.042Z,11.99
2019-05-25T02:40:37.264Z,12.05
2019-05-25T02:42:39.259Z,12.07
2019-05-25T02:44:41.528Z,12.08
2019-05-25T02:46:43.532Z,12.09
2019-05-25T02:48:45.532Z,12.09
2019-05-25T02:50:48.023Z,12.06
2019-05-25T02:52:49.718Z,11.99
2019-05-25T02:54:51.687Z,12.01
2019-05-25T02:56:53.897Z,12.06
2019-05-25T02:58:55.912Z,12.02
2019-05-25T03:00:58.163Z,11.97
2019-05-25T03:03:01.596Z,11.91
2019-05-25T03:05:05.755Z,11.94
2019-05-25T03:07:08.286Z,11.96
2019-05-25T03:09:10.044Z,12.06
2019-05-25T03:11:12.278Z,12.07
2019-05-25T03:13:15.029Z,12.06
2019-05-25T03:15:17.576Z,12.08
2019-05-25T03:17:19.755Z,11.94
2019-05-25T03:19:21.780Z,11.93
2019-05-25T03:21:24.072Z,11.85
2019-05-25T03:23:26.117Z,11.91
2019-05-25T03:25:28.125Z,11.95
2019-05-25T03:27:30.570Z,11.98
2019-05-25T03:29:32.579Z,11.94
2019-05-25T03:31:34.593Z,11.99
2019-05-25T03:33:36.880Z,12.03
2019-05-25T03:35:39.075Z,12.00
2019-05-25T03:37:41.123Z,12.05
2019-05-25T03:39:43.453Z,12.03
2019-05-25T03:41:45.531Z,12.07
2019-05-25T03:43:47.536Z,12.05
2019-05-25T03:45:49.780Z,11.93
2019-05-25T03:47:51.845Z,11.93
2019-05-25T03:49:53.867Z,11.94
2019-05-25T03:51:56.433Z,11.99
2019-05-25T03:53:58.550Z,12.07
2019-05-25T03:56:05.693Z,12.01
2019-05-25T03:58:06.001Z,11.98
2019-05-25T04:00:08.527Z,12.00
2019-05-25T04:02:10.819Z,12.12
2019-05-25T04:04:13.128Z,12.10
2019-05-25T04:06:15.147Z,12.11
2019-05-25T04:08:17.206Z,12.14
2019-05-25T04:10:19.702Z,12.12
2019-05-25T04:12:21.536Z,12.23
2019-05-25T04:14:24.435Z,12.18
2019-05-25T04:16:26.835Z,12.36
2019-05-25T04:18:29.723Z,12.34
2019-05-25T04:20:31.733Z,12.35
2019-05-25T04:22:34.124Z,12.40
2019-05-25T04:24:36.179Z,12.28
2019-05-25T04:26:38.211Z,12.37
2019-05-25T04:28:40.352Z,12.41
2019-05-25T04:30:43.526Z,12.51
2019-05-25T04:32:45.543Z,12.42
2019-05-25T04:34:47.729Z,12.58
2019-05-25T04:36:49.746Z,12.56
2019-05-25T04:38:51.775Z,12.52
2019-05-25T04:40:54.017Z,12.56
2019-05-25T04:42:56.275Z,12.66
2019-05-25T04:44:58.430Z,12.73
2019-05-25T04:47:00.644Z,12.68
2019-05-25T04:49:02.686Z,12.77
2019-05-25T04:51:04.710Z,12.75
2019-05-25T04:53:07.022Z,12.73
2019-05-25T04:55:08.869Z,12.82
2019-05-25T04:57:10.997Z,12.86
2019-05-25T04:59:13.350Z,12.93
2019-05-25T05:01:16.196Z,12.93
2019-05-25T05:03:19.680Z,12.96
2019-05-25T05:05:22.033Z,12.90
2019-05-25T05:07:24.494Z,13.00
2019-05-25T05:09:26.345Z,12.98
2019-05-25T05:11:28.744Z,13.09
2019-05-25T05:13:30.670Z,13.12
2019-05-25T05:15:33.075Z,13.17
2019-05-25T05:17:35.355Z,13.06
2019-05-25T05:19:37.367Z,13.12
2019-05-25T05:21:39.406Z,13.19
2019-05-25T05:23:41.725Z,13.22
2019-05-25T05:25:43.769Z,13.22
2019-05-25T05:27:45.834Z,13.04
2019-05-25T05:29:48.218Z,13.11
2019-05-25T05:31:50.211Z,12.99
2019-05-25T05:33:52.445Z,13.07
2019-05-25T05:35:57.581Z,13.12
2019-05-25T05:38:05.140Z,13.24
2019-05-25T05:40:08.683Z,13.23
2019-05-25T05:42:13.092Z,13.35
2019-05-25T05:44:18.280Z,13.50
2019-05-25T05:46:21.121Z,13.45
2019-05-25T05:48:25.741Z,13.52
2019-05-25T05:50:30.663Z,13.70
2019-05-25T05:52:38.059Z,13.75
2019-05-25T05:54:44.071Z,13.89
2019-05-25T05:56:46.095Z,13.97
2019-05-25T05:58:49.997Z,14.17
2019-05-25T06:00:52.328Z,14.07
2019-05-25T06:02:54.188Z,14.00
2019-05-25T06:04:57.250Z,14.05
2019-05-25T06:06:59.538Z,14.13
2019-05-25T06:09:01.231Z,14.24
2019-05-25T06:11:06.356Z,14.15
2019-05-25T06:13:09.934Z,13.89
2019-05-25T06:15:11.760Z,13.93
2019-05-25T06:17:13.869Z,13.87
2019-05-25T06:19:16.740Z,13.84
2019-05-25T06:21:18.747Z,13.69
2019-05-25T06:23:21.244Z,13.79
2019-05-25T06:25:23.948Z,13.62
2019-05-25T06:27:27.722Z,13.48
2019-05-25T06:29:29.942Z,13.54
2019-05-25T06:31:32.473Z,13.56
2019-05-25T06:33:34.671Z,13.63
2019-05-25T06:35:36.706Z,13.68
2019-05-25T06:37:39.392Z,13.71
2019-05-25T06:39:41.405Z,13.62
2019-05-25T06:41:43.443Z,13.74
2019-05-25T06:43:45.778Z,13.82
2019-05-25T06:45:47.787Z,13.85
2019-05-25T06:47:51.612Z,13.86
2019-05-25T06:49:54.121Z,13.92
2019-05-25T06:51:55.769Z,14.12
2019-05-25T06:53:57.900Z,13.96
2019-05-25T06:56:00.079Z,14.12
2019-05-25T06:58:03.011Z,14.24
2019-05-25T07:00:06.608Z,14.38
2019-05-25T07:02:08.904Z,14.29
2019-05-25T07:04:10.915Z,14.48
2019-05-25T07:06:12.944Z,14.61
2019-05-25T07:08:15.057Z,14.50
2019-05-25T07:10:17.139Z,14.51
2019-05-25T07:12:19.781Z,14.50
2019-05-25T07:14:22.293Z,14.61
2019-05-25T07:16:25.136Z,14.49
2019-05-25T07:18:27.353Z,14.52
2019-05-25T07:20:29.799Z,14.59
2019-05-25T07:22:31.990Z,14.64
2019-05-25T07:24:34.094Z,14.69
2019-05-25T07:26:39.037Z,14.69
2019-05-25T07:28:41.136Z,14.71
2019-05-25T07:30:46.498Z,14.64
2019-05-25T07:32:47.586Z,14.69
2019-05-25T07:34:49.624Z,14.73
2019-05-25T07:36:51.731Z,14.59
2019-05-25T07:38:53.981Z,14.67
2019-05-25T07:40:55.994Z,14.54
2019-05-25T07:42:58.065Z,14.64
2019-05-25T07:45:00.278Z,14.79
2019-05-25T07:47:02.280Z,14.91
2019-05-25T07:49:04.544Z,14.67
2019-05-25T07:51:06.821Z,14.71
2019-05-25T07:53:09.498Z,14.67
2019-05-25T07:55:11.847Z,14.82
2019-05-25T07:57:14.084Z,14.72
2019-05-25T07:59:16.089Z,14.67
2019-05-25T08:01:18.220Z,14.70
2019-05-25T08:03:20.520Z,14.78
2019-05-25T08:05:22.574Z,14.76
2019-05-25T08:07:24.950Z,14.57
2019-05-25T08:09:27.280Z,14.48
2019-05-25T08:11:29.498Z,14.61
2019-05-25T08:13:31.606Z,14.88
2019-05-25T08:15:34.281Z,14.95
2019-05-25T08:17:36.742Z,14.75
2019-05-25T08:19:39.623Z,14.68
2019-05-25T08:21:42.135Z,14.73
2019-05-25T08:23:44.620Z,14.69
2019-05-25T08:25:46.766Z,14.74
2019-05-25T08:27:50.445Z,14.70
2019-05-25T08:29:52.614Z,14.79
2019-05-25T08:31:54.849Z,14.70
2019-05-25T08:33:57.144Z,14.79
2019-05-25T08:35:59.501Z,14.67
2019-05-25T08:38:01.684Z,14.82
2019-05-25T08:40:04.866Z,14.89
2019-05-25T08:42:07.216Z,14.75
2019-05-25T08:44:09.922Z,15.24
2019-05-25T08:46:12.111Z,15.58
2019-05-25T08:48:14.291Z,15.38
2019-05-25T08:50:17.307Z,15.87
2019-05-25T08:52:19.587Z,16.01
2019-05-25T08:54:21.709Z,16.16
2019-05-25T08:56:24.051Z,16.01
2019-05-25T08:58:27.604Z,15.96
2019-05-25T09:00:29.369Z,15.79
2019-05-25T09:02:33.608Z,15.04
2019-05-25T09:04:35.761Z,15.19
2019-05-25T09:06:37.839Z,15.03
2019-05-25T09:08:40.191Z,14.83
2019-05-25T09:10:42.226Z,14.88
2019-05-25T09:12:44.259Z,14.99
2019-05-25T09:14:46.489Z,14.96
2019-05-25T09:16:48.589Z,14.93
2019-05-25T09:18:50.701Z,15.01
2019-05-25T09:20:54.415Z,14.97
2019-05-25T09:22:56.450Z,14.91
2019-05-25T09:24:58.487Z,14.88
2019-05-25T09:27:00.800Z,14.99
2019-05-25T09:29:04.876Z,14.95
2019-05-25T09:31:07.217Z,15.23
2019-05-25T09:33:09.443Z,15.21
2019-05-25T09:35:11.537Z,15.27
2019-05-25T09:37:13.682Z,15.61
2019-05-25T09:39:15.935Z,15.90
2019-05-25T09:41:17.956Z,16.02
2019-05-25T09:43:19.973Z,16.02
2019-05-25T09:45:22.326Z,16.21
2019-05-25T09:47:25.623Z,16.10
2019-05-25T09:49:27.633Z,16.41
2019-05-25T09:51:30.051Z,16.31
2019-05-25T09:53:34.851Z,17.07
2019-05-25T09:55:37.057Z,17.01
2019-05-25T09:57:41.728Z,17.06
2019-05-25T09:59:43.553Z,17.10
2019-05-25T10:01:46.662Z,16.92
2019-05-25T10:03:49.387Z,16.88
2019-05-25T10:05:52.064Z,16.69
2019-05-25T10:07:54.242Z,16.55
2019-05-25T10:09:56.518Z,16.40
2019-05-25T10:12:02.103Z,16.49
2019-05-25T10:14:04.304Z,16.54
2019-05-25T10:16:06.892Z,16.54
2019-05-25T10:18:10.561Z,16.74
2019-05-25T10:20:13.327Z,16.39
2019-05-25T10:22:15.728Z,16.44
2019-05-25T10:24:17.959Z,16.29
2019-05-25T10:26:22.912Z,16.17
2019-05-25T10:28:25.105Z,16.39
2019-05-25T10:30:27.187Z,16.32
2019-05-25T10:32:29.268Z,16.79
2019-05-25T10:34:31.573Z,16.62
2019-05-25T10:36:34.381Z,16.44
2019-05-25T10:38:36.636Z,16.46
2019-05-25T10:40:39.016Z,16.16
2019-05-25T10:42:40.853Z,16.37
2019-05-25T10:44:43.118Z,16.54
2019-05-25T10:46:45.591Z,16.50
2019-05-25T10:48:47.266Z,16.64
2019-05-25T10:50:49.394Z,16.94
2019-05-25T10:52:52.265Z,16.95
2019-05-25T10:54:56.490Z,16.64
2019-05-25T10:56:59.737Z,16.83
2019-05-25T10:59:03.184Z,17.04
2019-05-25T11:01:05.228Z,16.96
2019-05-25T11:03:08.009Z,16.94
2019-05-25T11:05:12.359Z,17.05
2019-05-25T11:07:14.452Z,16.98
2019-05-25T11:09:17.417Z,16.71
2019-05-25T11:11:20.148Z,16.80
2019-05-25T11:13:22.306Z,16.60
2019-05-25T11:15:24.499Z,16.55
2019-05-25T11:17:26.783Z,16.69
2019-05-25T11:19:29.557Z,16.63
2019-05-25T11:21:33.777Z,16.70
2019-05-25T11:23:36.252Z,16.61
2019-05-25T11:25:37.901Z,16.41
2019-05-25T11:27:40.172Z,16.42
2019-05-25T11:29:42.520Z,16.46
2019-05-25T11:31:54.479Z,16.57
2019-05-25T11:33:51.624Z,16.78
2019-05-25T11:35:54.385Z,16.86
2019-05-25T11:37:58.041Z,16.82
2019-05-25T11:40:00.200Z,16.88
2019-05-25T11:42:02.611Z,16.84
2019-05-25T11:44:04.668Z,16.80
2019-05-25T11:46:07.020Z,16.74
2019-05-25T11:48:09.378Z,16.95
2019-05-25T11:50:12.359Z,16.92
2019-05-25T11:52:14.686Z,16.83
2019-05-25T11:54:17.003Z,16.83
2019-05-25T11:56:19.122Z,16.92
2019-05-25T11:58:21.925Z,16.80
2019-05-25T12:00:25.892Z,16.95
2019-05-25T12:02:28.563Z,16.98
2019-05-25T12:04:30.661Z,17.25
2019-05-25T12:06:33.147Z,17.04
2019-05-25T12:08:35.015Z,17.04
2019-05-25T12:10:37.121Z,16.95
2019-05-25T12:12:39.429Z,16.83
2019-05-25T12:14:41.518Z,16.93
2019-05-25T12:16:44.877Z,16.97
2019-05-25T12:18:47.362Z,16.96
2019-05-25T12:20:49.116Z,17.09
2019-05-25T12:22:51.284Z,16.82
2019-05-25T12:24:53.756Z,17.04
2019-05-25T12:26:55.460Z,16.90
2019-05-25T12:28:57.646Z,17.02
2019-05-25T12:30:59.934Z,16.91
2019-05-25T12:33:01.999Z,16.83
2019-05-25T12:35:05.102Z,16.96
2019-05-25T12:37:07.366Z,16.89
2019-05-25T12:39:09.501Z,17.05
2019-05-25T12:41:12.694Z,16.79
2019-05-25T12:43:15.986Z,16.74
2019-05-25T12:45:18.213Z,16.58
2019-05-25T12:47:20.237Z,16.68
2019-05-25T12:49:22.486Z,16.78
2019-05-25T12:51:24.590Z,16.92
2019-05-25T12:53:26.654Z,16.78
2019-05-25T12:55:29.070Z,16.88
2019-05-25T12:57:31.305Z,16.69
2019-05-25T12:59:33.606Z,16.72
2019-05-25T13:01:36.327Z,16.94
2019-05-25T13:03:38.430Z,16.95
2019-05-25T13:05:40.502Z,17.20
2019-05-25T13:07:42.963Z,17.53
2019-05-25T13:09:44.935Z,17.53
2019-05-25T13:11:47.085Z,17.57
2019-05-25T13:13:49.577Z,17.37
2019-05-25T13:15:51.315Z,17.52
2019-05-25T13:17:53.283Z,17.63
2019-05-25T13:19:55.566Z,17.64
2019-05-25T13:21:57.640Z,17.82
2019-05-25T13:24:00.124Z,17.98
2019-05-25T13:26:02.973Z,18.05
2019-05-25T13:28:06.229Z,17.89
2019-05-25T13:30:09.593Z,18.02
2019-05-25T13:32:11.693Z,17.88
2019-05-25T13:34:13.895Z,17.72
2019-05-25T13:36:16.011Z,17.73
2019-05-25T13:38:18.238Z,17.63
2019-05-25T13:40:20.284Z,17.57
2019-05-25T13:42:22.454Z,17.40
2019-05-25T13:44:24.638Z,17.61
2019-05-25T13:46:26.825Z,17.52
2019-05-25T13:48:28.926Z,17.45
2019-05-25T13:50:31.220Z,17.47
2019-05-25T13:52:33.512Z,17.45
2019-05-25T13:54:35.990Z,17.47
2019-05-25T13:56:38.342Z,17.50
2019-05-25T13:58:40.465Z,17.53
2019-05-25T14:00:42.596Z,17.51
2019-05-25T14:02:45.223Z,17.45
2019-05-25T14:04:46.821Z,17.60
2019-05-25T14:06:48.875Z,17.76
2019-05-25T14:08:52.232Z,17.77
2019-05-25T14:10:54.216Z,18.08
2019-05-25T14:12:56.505Z,18.10
2019-05-25T14:14:58.830Z,17.94
2019-05-25T14:17:01.035Z,18.02
2019-05-25T14:19:03.264Z,18.03
2019-05-25T14:21:05.717Z,18.20
2019-05-25T14:23:07.395Z,18.15
2019-05-25T14:25:10.771Z,18.02
2019-05-25T14:27:12.949Z,18.12
2019-05-25T14:29:17.982Z,18.36
2019-05-25T14:31:20.132Z,18.32
2019-05-25T14:33:22.593Z,18.50
2019-05-25T14:35:24.636Z,18.33
2019-05-25T14:37:26.802Z,18.53
2019-05-25T14:39:29.504Z,18.45
2019-05-25T14:41:31.979Z,18.39
2019-05-25T14:43:33.961Z,18.45
2019-05-25T14:45:36.622Z,18.47
2019-05-25T14:47:38.804Z,18.43
2019-05-25T14:49:41.023Z,18.50
2019-05-25T14:51:43.421Z,18.48
2019-05-25T14:53:45.512Z,18.56
2019-05-25T14:55:47.640Z,18.54
2019-05-25T14:57:50.013Z,18.69
2019-05-25T14:59:52.101Z,18.58
2019-05-25T15:02:02.586Z,18.43
2019-05-25T15:03:58.588Z,18.48
2019-05-25T15:06:00.740Z,18.33
2019-05-25T15:08:02.825Z,18.45
2019-05-25T15:10:05.662Z,18.39
2019-05-25T15:12:07.934Z,18.53
2019-05-25T15:14:11.183Z,18.36
2019-05-25T15:16:13.371Z,18.11
2019-05-25T15:18:15.584Z,18.05
2019-05-25T15:20:18.962Z,18.02
2019-05-25T15:22:21.419Z,18.06
2019-05-25T15:24:23.660Z,18.24
2019-05-25T15:26:25.714Z,18.11
2019-05-25T15:28:28.118Z,18.06
2019-05-25T15:30:30.501Z,17.92
2019-05-25T15:32:33.199Z,17.79
2019-05-25T15:34:36.025Z,17.85
2019-05-25T15:36:38.152Z,17.77
2019-05-25T15:38:40.321Z,17.84
2019-05-25T15:40:42.521Z,17.76
2019-05-25T15:42:44.605Z,17.56
2019-05-25T15:44:46.789Z,17.50
2019-05-25T15:46:49.930Z,17.46
2019-05-25T15:48:52.160Z,17.57
2019-05-25T15:50:54.342Z,17.53
2019-05-25T15:52:56.984Z,17.44
2019-05-25T15:54:59.103Z,17.24
2019-05-25T15:57:01.180Z,17.42
2019-05-25T15:59:04.243Z,17.37
2019-05-25T16:01:07.565Z,17.42
2019-05-25T16:03:09.846Z,17.56
2019-05-25T16:05:13.025Z,17.44
2019-05-25T16:07:15.605Z,17.47
2019-05-25T16:09:17.465Z,17.51
2019-05-25T16:11:19.881Z,17.53
2019-05-25T16:13:22.209Z,17.22
2019-05-25T16:15:28.387Z,17.13
2019-05-25T16:17:30.856Z,17.13
2019-05-25T16:19:32.382Z,17.07
2019-05-25T16:21:34.779Z,17.18
2019-05-25T16:23:38.231Z,17.31
2019-05-25T16:25:40.470Z,17.34
2019-05-25T16:27:43.570Z,17.25
2019-05-25T16:29:45.937Z,17.34
2019-05-25T16:31:49.422Z,16.92
2019-05-25T16:33:52.428Z,16.79
2019-05-25T16:35:57.889Z,16.84
2019-05-25T16:37:59.180Z,16.69
2019-05-25T16:40:02.149Z,16.57
2019-05-25T16:42:06.205Z,16.38
2019-05-25T16:44:08.340Z,16.19
2019-05-25T16:46:10.380Z,16.09
2019-05-25T16:48:12.807Z,15.94
2019-05-25T16:50:15.322Z,15.94
2019-05-25T16:52:17.859Z,16.03
2019-05-25T16:54:19.913Z,16.13
2019-05-25T16:56:22.248Z,16.13
2019-05-25T16:58:24.653Z,16.23
2019-05-25T17:00:27.584Z,16.09
2019-05-25T17:02:29.766Z,16.22
2019-05-25T17:04:32.084Z,16.02
2019-05-25T17:06:34.198Z,16.04
2019-05-25T17:08:36.214Z,16.11
2019-05-25T17:10:38.667Z,15.88
2019-05-25T17:12:40.448Z,16.11
2019-05-25T17:14:42.826Z,16.14
2019-05-25T17:16:45.047Z,16.25
2019-05-25T17:18:47.087Z,16.21
2019-05-25T17:20:49.940Z,16.02
2019-05-25T17:22:52.353Z,15.92
2019-05-25T17:24:54.003Z,15.92
2019-05-25T17:26:56.061Z,15.78
2019-05-25T17:28:58.434Z,15.99
2019-05-25T17:31:00.572Z,16.06
2019-05-25T17:33:03.876Z,16.22
2019-05-25T17:35:06.571Z,16.09
2019-05-25T17:37:08.771Z,16.00
2019-05-25T17:39:11.015Z,16.10
2019-05-25T17:41:13.682Z,16.03
2019-05-25T17:43:15.566Z,15.96
2019-05-25T17:45:17.675Z,16.03
2019-05-25T17:47:20.466Z,16.07
2019-05-25T17:49:22.682Z,16.24
2019-05-25T17:51:25.200Z,16.27
2019-05-25T17:53:27.443Z,16.20
2019-05-25T17:55:29.839Z,16.15
2019-05-25T17:57:32.056Z,16.18
2019-05-25T17:59:34.482Z,15.98
2019-05-25T18:01:36.330Z,16.01
2019-05-25T18:03:38.463Z,16.14
2019-05-25T18:05:40.903Z,16.16
2019-05-25T18:07:44.057Z,16.10
2019-05-25T18:09:46.366Z,16.07
2019-05-25T18:11:48.934Z,16.13
2019-05-25T18:13:51.465Z,15.97
2019-05-25T18:15:53.184Z,16.15
2019-05-25T18:17:55.798Z,16.15
2019-05-25T18:19:57.622Z,16.22
2019-05-25T18:21:59.990Z,16.38
2019-05-25T18:24:10.365Z,16.37
2019-05-25T18:26:12.607Z,16.27
2019-05-25T18:28:15.346Z,16.37
2019-05-25T18:30:18.309Z,16.37
2019-05-25T18:32:20.431Z,16.26
2019-05-25T18:34:22.737Z,16.21
2019-05-25T18:36:25.249Z,16.21
2019-05-25T18:38:27.001Z,16.18
2019-05-25T18:40:29.147Z,16.15
2019-05-25T18:42:31.303Z,16.03
2019-05-25T18:44:33.645Z,16.07
2019-05-25T18:46:36.096Z,16.04
2019-05-25T18:48:38.076Z,15.88
2019-05-25T18:50:40.998Z,15.86
2019-05-25T18:52:43.250Z,15.85
2019-05-25T18:54:45.532Z,15.70
2019-05-25T18:56:47.593Z,15.63
2019-05-25T18:58:49.815Z,15.53
2019-05-25T19:00:52.406Z,15.43
2019-05-25T19:02:54.286Z,15.43
2019-05-25T19:04:59.740Z,15.31
2019-05-25T19:07:00.471Z,15.19
2019-05-25T19:09:04.536Z,15.10
2019-05-25T19:11:06.684Z,15.13
2019-05-25T19:13:09.065Z,15.07
2019-05-25T19:15:11.534Z,14.98
2019-05-25T19:17:13.474Z,14.90
2019-05-25T19:19:16.004Z,14.80
2019-05-25T19:21:17.633Z,14.79
2019-05-25T19:23:20.084Z,14.80
2019-05-25T19:25:22.715Z,14.72
2019-05-25T19:27:24.879Z,14.63
2019-05-25T19:29:27.096Z,14.58
2019-05-25T19:31:29.678Z,14.55
2019-05-25T19:33:31.878Z,14.56
2019-05-25T19:35:34.112Z,14.51
2019-05-25T19:37:36.608Z,14.43
2019-05-25T19:39:38.768Z,14.32
2019-05-25T19:41:40.903Z,14.31
2019-05-25T19:43:43.507Z,14.29
2019-05-25T19:45:47.344Z,14.25
2019-05-25T19:47:49.854Z,14.30
2019-05-25T19:49:52.256Z,14.34
2019-05-25T19:51:54.343Z,14.25
2019-05-25T19:53:56.605Z,14.15
2019-05-25T19:56:00.278Z,14.16
2019-05-25T19:58:02.317Z,14.12
2019-05-25T20:00:05.545Z,14.15
2019-05-25T20:02:09.148Z,14.10
2019-05-25T20:04:13.954Z,14.15
2019-05-25T20:06:16.155Z,14.16
2019-05-25T20:08:18.503Z,14.18
2019-05-25T20:10:21.253Z,14.07
2019-05-25T20:12:23.365Z,14.07
2019-05-25T20:14:27.340Z,13.99
2019-05-25T20:16:30.604Z,13.98
2019-05-25T20:18:32.985Z,14.06
2019-05-25T20:20:35.263Z,14.08
2019-05-25T20:22:37.128Z,13.97
2019-05-25T20:24:39.777Z,14.01
2019-05-25T20:26:42.089Z,13.93
2019-05-25T20:28:44.146Z,13.91
2019-05-25T20:30:46.380Z,13.90
2019-05-25T20:32:49.078Z,13.87
2019-05-25T20:34:52.120Z,13.86
2019-05-25T20:36:54.150Z,13.81
2019-05-25T20:38:56.608Z,13.82
2019-05-25T20:40:59.907Z,13.82
2019-05-25T20:43:02.154Z,13.81
2019-05-25T20:45:05.275Z,13.82
2019-05-25T20:47:07.626Z,13.74
2019-05-25T20:49:11.233Z,13.76
2019-05-25T20:51:13.727Z,13.62
2019-05-25T20:53:17.157Z,13.63
2019-05-25T20:55:19.268Z,13.61
2019-05-25T20:57:22.185Z,13.61
2019-05-25T20:59:24.363Z,13.64
2019-05-25T21:01:26.381Z,13.61
2019-05-25T21:03:29.041Z,13.55
2019-05-25T21:05:31.132Z,13.47
2019-05-25T21:07:34.352Z,13.42
2019-05-25T21:09:37.064Z,13.41
2019-05-25T21:11:38.849Z,13.36
2019-05-25T21:13:40.972Z,13.35
2019-05-25T21:16:04.612Z,13.36
2019-05-25T21:18:06.925Z,13.26
2019-05-25T21:20:09.201Z,13.24
2019-05-25T21:22:12.180Z,13.23
2019-05-25T21:24:14.727Z,13.15
2019-05-25T21:26:16.929Z,13.13
2019-05-25T21:28:19.255Z,13.11
2019-05-25T21:30:21.112Z,13.10
2019-05-25T21:32:25.982Z,13.09
2019-05-25T21:34:28.331Z,13.10
2019-05-25T21:36:30.354Z,13.10
2019-05-25T21:38:32.667Z,13.08
2019-05-25T21:40:35.428Z,13.06
2019-05-25T21:42:37.557Z,13.02
2019-05-25T21:44:39.875Z,12.99
2019-05-25T21:46:42.032Z,12.98
2019-05-25T21:48:44.214Z,12.98
2019-05-25T21:50:47.217Z,12.97
2019-05-25T21:52:49.528Z,13.00
2019-05-25T21:54:51.602Z,13.02
2019-05-25T21:56:53.775Z,13.01
2019-05-25T21:58:56.529Z,13.00
2019-05-25T22:00:58.756Z,13.00
2019-05-25T22:03:03.315Z,13.01
2019-05-25T22:05:07.456Z,13.04
2019-05-25T22:07:09.686Z,12.99
2019-05-25T22:09:12.143Z,12.81
2019-05-25T22:11:14.093Z,12.85
2019-05-25T22:13:27.985Z,12.87
2019-05-25T22:15:20.227Z,12.87
2019-05-25T22:17:22.924Z,12.86
2019-05-25T22:19:25.045Z,12.80
2019-05-25T22:21:27.362Z,12.81
2019-05-25T22:23:29.434Z,12.81
2019-05-25T22:25:31.639Z,12.80
2019-05-25T22:27:33.736Z,12.76
2019-05-25T22:29:36.142Z,12.80
2019-05-25T22:33:00.622Z,12.80
2019-05-25T22:35:03.234Z,12.73
2019-05-25T22:37:06.077Z,12.72
2019-05-25T22:39:08.193Z,12.69
2019-05-25T22:41:10.653Z,12.67
2019-05-25T22:43:12.435Z,12.67
2019-05-25T22:45:14.783Z,12.66
2019-05-25T22:47:16.940Z,12.69
2019-05-25T22:49:19.297Z,12.70
2019-05-25T22:51:21.360Z,12.60
2019-05-25T22:53:23.756Z,12.47
2019-05-25T22:55:25.473Z,12.47
2019-05-25T22:57:27.708Z,12.40
2019-05-25T22:59:30.133Z,12.49
2019-05-25T23:01:32.542Z,12.50
2019-05-25T23:03:34.698Z,12.47
2019-05-25T23:05:36.943Z,12.41
2019-05-25T23:07:39.155Z,12.46
2019-05-25T23:09:41.192Z,12.49
2019-05-25T23:11:43.323Z,12.45
2019-05-25T23:13:45.418Z,12.47
2019-05-25T23:15:47.809Z,12.47
2019-05-25T23:17:50.217Z,12.45
2019-05-25T23:19:51.808Z,12.47
2019-05-25T23:21:53.973Z,12.43
2019-05-25T23:23:57.528Z,12.41
2019-05-25T23:25:59.160Z,12.43
2019-05-25T23:28:01.296Z,12.50
2019-05-25T23:30:05.500Z,12.47
2019-05-25T23:32:07.719Z,12.44
2019-05-25T23:34:09.844Z,12.42
2019-05-25T23:36:12.370Z,12.46
2019-05-25T23:38:14.607Z,12.46
2019-05-25T23:40:17.319Z,12.39
2019-05-25T23:42:20.000Z,12.40
2019-05-25T23:44:22.242Z,12.42
2019-05-25T23:46:24.687Z,12.42
2019-05-25T23:48:30.072Z,12.42
2019-05-25T23:50:32.244Z,12.37
2019-05-25T23:52:35.486Z,12.40
2019-05-25T23:54:37.996Z,12.39
2019-05-25T23:56:41.539Z,12.36
2019-05-25T23:58:45.471Z,12.38
